sensor_id;sensor_type;location;lat;lon;timestamp;pressure;altitude;pressure_sealevel;temperature;humidity
51099;BME280;37146;48.210;16.234;2023-02-20T00:01:15;99602.56;;;4.56;100.00
51099;BME280;37146;48.210;16.234;2023-02-20T00:03:40;99594.25;;;4.26;100.00
51099;BME280;37146;48.210;16.234;2023-02-20T00:06:06;99597.84;;;4.22;100.00
51099;BME280;37146;48.210;16.234;2023-02-20T00:08:31;99595.19;;;4.23;100.00
51099;BME280;37146;48.210;16.234;2023-02-20T00:10:56;99604.03;;;4.22;100.00
51099;BME280;37146;48.210;16.234;2023-02-20T00:13:21;99598.00;;;4.12;100.00
51099;BME280;37146;48.210;16.234;2023-02-20T00:15:47;99595.31;;;4.15;100.00
51099;BME280;37146;48.210;16.234;2023-02-20T00:18:12;99608.88;;;3.94;100.00
51099;BME280;37146;48.210;16.234;2023-02-20T00:20:38;99604.38;;;3.99;100.00
51099;BME280;37146;48.210;16.234;2023-02-20T00:23:03;99600.28;;;3.76;100.00
51099;BME280;37146;48.210;16.234;2023-02-20T00:25:28;99597.22;;;4.07;100.00
51099;BME280;37146;48.210;16.234;2023-02-20T00:27:53;99599.28;;;3.85;100.00
51099;BME280;37146;48.210;16.234;2023-02-20T00:30:20;99611.50;;;3.97;100.00
51099;BME280;37146;48.210;16.234;2023-02-20T00:32:46;99604.63;;;3.83;100.00
51099;BME280;37146;48.210;16.234;2023-02-20T00:35:12;99610.84;;;3.79;100.00
51099;BME280;37146;48.210;16.234;2023-02-20T00:37:37;99609.81;;;3.90;100.00
51099;BME280;37146;48.210;16.234;2023-02-20T00:40:03;99608.22;;;3.76;100.00
51099;BME280;37146;48.210;16.234;2023-02-20T00:42:28;99618.75;;;3.81;100.00
51099;BME280;37146;48.210;16.234;2023-02-20T00:44:53;99620.25;;;3.99;100.00
51099;BME280;37146;48.210;16.234;2023-02-20T00:47:19;99622.06;;;3.97;100.00
51099;BME280;37146;48.210;16.234;2023-02-20T00:49:44;99620.63;;;3.72;100.00
51099;BME280;37146;48.210;16.234;2023-02-20T00:52:09;99615.78;;;4.02;100.00
51099;BME280;37146;48.210;16.234;2023-02-20T00:54:34;99609.06;;;3.81;100.00
51099;BME280;37146;48.210;16.234;2023-02-20T00:56:59;99606.44;;;3.78;100.00
51099;BME280;37146;48.210;16.234;2023-02-20T00:59:25;99606.25;;;3.92;100.00
51099;BME280;37146;48.210;16.234;2023-02-20T01:01:50;99609.78;;;3.93;100.00
51099;BME280;37146;48.210;16.234;2023-02-20T01:04:15;99593.47;;;3.63;100.00
51099;BME280;37146;48.210;16.234;2023-02-20T01:06:40;99605.47;;;3.85;100.00
51099;BME280;37146;48.210;16.234;2023-02-20T01:09:05;99614.94;;;3.38;100.00
51099;BME280;37146;48.210;16.234;2023-02-20T01:11:31;99609.41;;;3.56;100.00
51099;BME280;37146;48.210;16.234;2023-02-20T01:13:56;99603.97;;;3.66;100.00
51099;BME280;37146;48.210;16.234;2023-02-20T01:16:21;99602.13;;;3.74;100.00
51099;BME280;37146;48.210;16.234;2023-02-20T01:18:49;99599.50;;;3.69;100.00
51099;BME280;37146;48.210;16.234;2023-02-20T01:21:15;99597.78;;;3.68;100.00
51099;BME280;37146;48.210;16.234;2023-02-20T01:23:43;99599.66;;;3.59;100.00
51099;BME280;37146;48.210;16.234;2023-02-20T01:26:08;99610.31;;;3.54;100.00
51099;BME280;37146;48.210;16.234;2023-02-20T01:28:34;99604.13;;;3.53;100.00
51099;BME280;37146;48.210;16.234;2023-02-20T01:30:59;99615.44;;;3.65;100.00
51099;BME280;37146;48.210;16.234;2023-02-20T01:33:24;99620.13;;;3.44;100.00
51099;BME280;37146;48.210;16.234;2023-02-20T01:35:49;99612.06;;;3.53;100.00
51099;BME280;37146;48.210;16.234;2023-02-20T01:38:14;99618.28;;;3.51;100.00
51099;BME280;37146;48.210;16.234;2023-02-20T01:40:45;99615.56;;;3.57;100.00
51099;BME280;37146;48.210;16.234;2023-02-20T01:43:10;99610.28;;;3.55;100.00
51099;BME280;37146;48.210;16.234;2023-02-20T01:45:36;99608.56;;;3.53;100.00
51099;BME280;37146;48.210;16.234;2023-02-20T01:48:01;99605.88;;;3.56;100.00
51099;BME280;37146;48.210;16.234;2023-02-20T01:52:56;99603.00;;;3.73;100.00
51099;BME280;37146;48.210;16.234;2023-02-20T01:55:30;99600.19;;;3.85;100.00
51099;BME280;37146;48.210;16.234;2023-02-20T01:58:00;99605.53;;;3.82;100.00
51099;BME280;37146;48.210;16.234;2023-02-20T02:00:27;99607.53;;;3.63;100.00
51099;BME280;37146;48.210;16.234;2023-02-20T02:05:22;99615.50;;;3.60;100.00
51099;BME280;37146;48.210;16.234;2023-02-20T02:07:48;99614.69;;;3.56;100.00
51099;BME280;37146;48.210;16.234;2023-02-20T02:10:15;99610.09;;;3.71;100.00
51099;BME280;37146;48.210;16.234;2023-02-20T02:12:45;99609.22;;;3.69;100.00
51099;BME280;37146;48.210;16.234;2023-02-20T02:15:12;99598.75;;;3.63;100.00
51099;BME280;37146;48.210;16.234;2023-02-20T02:17:42;99603.00;;;3.71;100.00
51099;BME280;37146;48.210;16.234;2023-02-20T02:33:12;99597.06;;;3.55;100.00
51099;BME280;37146;48.210;16.234;2023-02-20T02:38:21;99603.06;;;3.68;100.00
51099;BME280;37146;48.210;16.234;2023-02-20T02:45:56;99609.09;;;3.78;100.00
51099;BME280;37146;48.210;16.234;2023-02-20T02:48:28;99604.75;;;3.74;100.00
51099;BME280;37146;48.210;16.234;2023-02-20T02:50:58;99606.44;;;3.80;100.00
51099;BME280;37146;48.210;16.234;2023-02-20T02:53:26;99611.81;;;3.74;100.00
51099;BME280;37146;48.210;16.234;2023-02-20T02:55:51;99611.59;;;3.89;100.00
51099;BME280;37146;48.210;16.234;2023-02-20T02:58:16;99600.47;;;3.65;100.00
51099;BME280;37146;48.210;16.234;2023-02-20T03:00:44;99608.22;;;3.78;100.00
51099;BME280;37146;48.210;16.234;2023-02-20T03:03:16;99606.31;;;3.87;100.00
51099;BME280;37146;48.210;16.234;2023-02-20T03:05:54;99599.41;;;3.79;100.00
51099;BME280;37146;48.210;16.234;2023-02-20T03:08:41;99608.00;;;3.95;100.00
51099;BME280;37146;48.210;16.234;2023-02-20T03:11:14;99605.53;;;3.82;100.00
51099;BME280;37146;48.210;16.234;2023-02-20T03:13:44;99606.47;;;3.77;100.00
51099;BME280;37146;48.210;16.234;2023-02-20T03:16:31;99600.28;;;3.76;100.00
51099;BME280;37146;48.210;16.234;2023-02-20T03:19:00;99603.94;;;3.69;100.00
51099;BME280;37146;48.210;16.234;2023-02-20T03:21:26;99594.19;;;3.74;100.00
51099;BME280;37146;48.210;16.234;2023-02-20T03:23:56;99597.53;;;3.84;100.00
51099;BME280;37146;48.210;16.234;2023-02-20T03:26:27;99587.28;;;3.64;100.00
51099;BME280;37146;48.210;16.234;2023-02-20T03:28:56;99594.97;;;3.79;100.00
51099;BME280;37146;48.210;16.234;2023-02-20T03:31:40;99582.91;;;3.60;100.00
51099;BME280;37146;48.210;16.234;2023-02-20T03:34:13;99588.91;;;3.69;100.00
51099;BME280;37146;48.210;16.234;2023-02-20T03:37:00;99601.00;;;3.87;100.00
51099;BME280;37146;48.210;16.234;2023-02-20T03:39:50;99591.88;;;3.48;100.00
51099;BME280;37146;48.210;16.234;2023-02-20T03:42:36;99586.47;;;3.55;100.00
51099;BME280;37146;48.210;16.234;2023-02-20T03:45:20;99573.41;;;3.45;100.00
51099;BME280;37146;48.210;16.234;2023-02-20T03:47:48;99582.31;;;3.37;100.00
51099;BME280;37146;48.210;16.234;2023-02-20T03:50:14;99579.59;;;3.42;100.00
51099;BME280;37146;48.210;16.234;2023-02-20T03:52:58;99586.53;;;3.52;100.00
51099;BME280;37146;48.210;16.234;2023-02-20T03:55:23;99583.69;;;3.65;100.00
51099;BME280;37146;48.210;16.234;2023-02-20T03:57:50;99583.81;;;3.59;100.00
51099;BME280;37146;48.210;16.234;2023-02-20T04:00:17;99596.25;;;3.50;100.00
51099;BME280;37146;48.210;16.234;2023-02-20T04:02:44;99598.81;;;3.56;100.00
51099;BME280;37146;48.210;16.234;2023-02-20T04:05:12;99590.16;;;3.45;100.00
51099;BME280;37146;48.210;16.234;2023-02-20T04:07:40;99594.69;;;3.35;100.00
51099;BME280;37146;48.210;16.234;2023-02-20T04:10:08;99593.06;;;3.23;100.00
51099;BME280;37146;48.210;16.234;2023-02-20T04:12:37;99583.34;;;3.25;100.00
51099;BME280;37146;48.210;16.234;2023-02-20T04:15:05;99579.84;;;3.23;100.00
51099;BME280;37146;48.210;16.234;2023-02-20T04:17:31;99565.94;;;3.07;100.00
51099;BME280;37146;48.210;16.234;2023-02-20T04:19:59;99563.31;;;3.07;100.00
51099;BME280;37146;48.210;16.234;2023-02-20T04:22:26;99558.06;;;3.04;100.00
51099;BME280;37146;48.210;16.234;2023-02-20T04:24:57;99553.72;;;3.00;100.00
51099;BME280;37146;48.210;16.234;2023-02-20T04:27:24;99556.47;;;2.89;100.00
51099;BME280;37146;48.210;16.234;2023-02-20T04:29:49;99556.53;;;2.86;100.00
51099;BME280;37146;48.210;16.234;2023-02-20T04:32:14;99540.72;;;2.80;100.00
51099;BME280;37146;48.210;16.234;2023-02-20T04:34:40;99539.00;;;2.76;100.00
51099;BME280;37146;48.210;16.234;2023-02-20T04:39:33;99545.69;;;3.06;100.00
51099;BME280;37146;48.210;16.234;2023-02-20T04:41:58;99543.50;;;2.68;100.00
51099;BME280;37146;48.210;16.234;2023-02-20T04:44:24;99545.97;;;2.82;100.00
51099;BME280;37146;48.210;16.234;2023-02-20T04:46:55;99547.88;;;2.72;100.00
51099;BME280;37146;48.210;16.234;2023-02-20T04:49:20;99556.94;;;3.22;100.00
51099;BME280;37146;48.210;16.234;2023-02-20T04:51:45;99556.97;;;3.21;100.00
51099;BME280;37146;48.210;16.234;2023-02-20T04:54:10;99555.59;;;2.90;100.00
51099;BME280;37146;48.210;16.234;2023-02-20T04:56:36;99562.59;;;2.93;100.00
51099;BME280;37146;48.210;16.234;2023-02-20T04:59:01;99557.22;;;3.01;100.00
51099;BME280;37146;48.210;16.234;2023-02-20T05:01:26;99559.06;;;2.96;100.00
51099;BME280;37146;48.210;16.234;2023-02-20T05:03:51;99556.88;;;3.29;100.00
51099;BME280;37146;48.210;16.234;2023-02-20T05:06:16;99553.69;;;3.02;100.00
51099;BME280;37146;48.210;16.234;2023-02-20T05:08:42;99558.31;;;2.84;100.00
51099;BME280;37146;48.210;16.234;2023-02-20T05:11:07;99549.09;;;3.19;100.00
51099;BME280;37146;48.210;16.234;2023-02-20T05:13:32;99538.69;;;3.04;100.00
51099;BME280;37146;48.210;16.234;2023-02-20T05:15:57;99535.22;;;3.00;100.00
51099;BME280;37146;48.210;16.234;2023-02-20T05:18:26;99539.34;;;3.23;100.00
51099;BME280;37146;48.210;16.234;2023-02-20T05:20:52;99535.22;;;3.00;100.00
51099;BME280;37146;48.210;16.234;2023-02-20T05:23:35;99531.56;;;3.11;100.00
51099;BME280;37146;48.210;16.234;2023-02-20T05:26:01;99533.09;;;3.29;100.00
51099;BME280;37146;48.210;16.234;2023-02-20T05:28:26;99523.47;;;3.21;100.00
51099;BME280;37146;48.210;16.234;2023-02-20T05:30:51;99526.91;;;3.30;100.00
51099;BME280;37146;48.210;16.234;2023-02-20T05:33:16;99530.16;;;3.49;100.00
51099;BME280;37146;48.210;16.234;2023-02-20T05:35:42;99535.44;;;3.49;100.00
51099;BME280;37146;48.210;16.234;2023-02-20T05:38:07;99526.03;;;3.29;100.00
51099;BME280;37146;48.210;16.234;2023-02-20T05:40:32;99541.25;;;3.12;100.00
51099;BME280;37146;48.210;16.234;2023-02-20T05:42:57;99536.59;;;3.31;100.00
51099;BME280;37146;48.210;16.234;2023-02-20T05:45:22;99530.59;;;3.19;100.00
51099;BME280;37146;48.210;16.234;2023-02-20T05:47:48;99535.66;;;3.32;100.00
51099;BME280;37146;48.210;16.234;2023-02-20T05:50:13;99532.03;;;3.40;100.00
51099;BME280;37146;48.210;16.234;2023-02-20T05:52:38;99543.28;;;3.56;100.00
51099;BME280;37146;48.210;16.234;2023-02-20T05:55:03;99551.34;;;3.47;100.00
51099;BME280;37146;48.210;16.234;2023-02-20T05:57:29;99553.38;;;3.27;100.00
51099;BME280;37146;48.210;16.234;2023-02-20T05:59:54;99551.31;;;3.50;100.00
51099;BME280;37146;48.210;16.234;2023-02-20T06:02:19;99552.47;;;3.31;100.00
51099;BME280;37146;48.210;16.234;2023-02-20T06:04:44;99552.34;;;3.38;100.00
51099;BME280;37146;48.210;16.234;2023-02-20T06:07:10;99546.16;;;3.41;100.00
51099;BME280;37146;48.210;16.234;2023-02-20T06:09:35;99544.22;;;3.51;100.00
51099;BME280;37146;48.210;16.234;2023-02-20T06:12:00;99559.97;;;3.62;100.00
51099;BME280;37146;48.210;16.234;2023-02-20T06:14:26;99559.81;;;3.69;100.00
51099;BME280;37146;48.210;16.234;2023-02-20T06:16:51;99554.75;;;3.55;100.00
51099;BME280;37146;48.210;16.234;2023-02-20T06:19:18;99559.97;;;3.62;100.00
51099;BME280;37146;48.210;16.234;2023-02-20T06:21:44;99562.59;;;3.60;100.00
51099;BME280;37146;48.210;16.234;2023-02-20T06:24:09;99565.16;;;3.68;100.00
51099;BME280;37146;48.210;16.234;2023-02-20T06:26:38;99554.28;;;3.88;100.00
51099;BME280;37146;48.210;16.234;2023-02-20T06:29:03;99559.88;;;4.23;100.00
51099;BME280;37146;48.210;16.234;2023-02-20T06:31:28;99552.53;;;4.40;100.00
51099;BME280;37146;48.210;16.234;2023-02-20T06:33:54;99547.69;;;4.62;100.00
51099;BME280;37146;48.210;16.234;2023-02-20T06:36:20;99554.38;;;4.84;100.00
51099;BME280;37146;48.210;16.234;2023-02-20T06:38:46;99553.22;;;4.97;100.00
51099;BME280;37146;48.210;16.234;2023-02-20T06:41:11;99564.47;;;5.08;100.00
51099;BME280;37146;48.210;16.234;2023-02-20T06:43:37;99559.81;;;5.20;100.00
51099;BME280;37146;48.210;16.234;2023-02-20T06:46:02;99560.56;;;5.28;100.00
51099;BME280;37146;48.210;16.234;2023-02-20T06:48:27;99555.09;;;5.34;100.00
51099;BME280;37146;48.210;16.234;2023-02-20T06:50:52;99565.66;;;5.37;100.00
51099;BME280;37146;48.210;16.234;2023-02-20T06:53:20;99570.66;;;5.51;100.00
51099;BME280;37146;48.210;16.234;2023-02-20T06:55:45;99567.56;;;5.71;100.00
51099;BME280;37146;48.210;16.234;2023-02-20T06:58:10;99568.25;;;5.80;100.00
51099;BME280;37146;48.210;16.234;2023-02-20T07:00:35;99570.75;;;5.86;100.00
51099;BME280;37146;48.210;16.234;2023-02-20T07:03:01;99560.84;;;5.94;100.00
51099;BME280;37146;48.210;16.234;2023-02-20T07:05:26;99560.84;;;5.94;100.00
51099;BME280;37146;48.210;16.234;2023-02-20T07:07:52;99564.78;;;6.15;100.00
51099;BME280;37146;48.210;16.234;2023-02-20T07:10:18;99551.19;;;8.66;100.00
51099;BME280;37146;48.210;16.234;2023-02-20T07:12:43;99539.31;;;9.48;100.00
51099;BME280;37146;48.210;16.234;2023-02-20T07:15:09;99532.44;;;9.17;100.00
51099;BME280;37146;48.210;16.234;2023-02-20T07:17:35;99531.41;;;10.33;92.77
51099;BME280;37146;48.210;16.234;2023-02-20T07:20:00;99530.97;;;9.33;97.36
51099;BME280;37146;48.210;16.234;2023-02-20T07:22:26;99534.91;;;8.74;100.00
51099;BME280;37146;48.210;16.234;2023-02-20T07:24:51;99532.78;;;8.58;98.69
51099;BME280;37146;48.210;16.234;2023-02-20T07:27:17;99534.06;;;7.93;100.00
51099;BME280;37146;48.210;16.234;2023-02-20T07:29:45;99539.56;;;7.60;100.00
51099;BME280;37146;48.210;16.234;2023-02-20T07:32:11;99537.44;;;7.41;100.00
51099;BME280;37146;48.210;16.234;2023-02-20T07:34:37;99529.22;;;7.49;100.00
51099;BME280;37146;48.210;16.234;2023-02-20T07:37:02;99536.22;;;7.51;100.00
51099;BME280;37146;48.210;16.234;2023-02-20T07:39:27;99530.28;;;7.43;100.00
51099;BME280;37146;48.210;16.234;2023-02-20T07:41:53;99530.09;;;7.19;100.00
51099;BME280;37146;48.210;16.234;2023-02-20T07:44:18;99527.91;;;7.34;100.00
51099;BME280;37146;48.210;16.234;2023-02-20T07:46:43;99531.03;;;7.48;100.00
51099;BME280;37146;48.210;16.234;2023-02-20T07:49:08;99527.75;;;7.95;100.00
51099;BME280;37146;48.210;16.234;2023-02-20T07:51:34;99528.59;;;7.69;100.00
51099;BME280;37146;48.210;16.234;2023-02-20T07:53:59;99521.44;;;7.71;100.00
51099;BME280;37146;48.210;16.234;2023-02-20T07:56:24;99529.91;;;7.55;100.00
51099;BME280;37146;48.210;16.234;2023-02-20T07:58:50;99526.41;;;7.53;100.00
51099;BME280;37146;48.210;16.234;2023-02-20T08:01:15;99523.13;;;7.45;100.00
51099;BME280;37146;48.210;16.234;2023-02-20T08:03:41;99518.03;;;7.66;100.00
51099;BME280;37146;48.210;16.234;2023-02-20T08:06:06;99527.00;;;7.63;100.00
51099;BME280;37146;48.210;16.234;2023-02-20T08:08:31;99525.97;;;9.24;98.31
51099;BME280;37146;48.210;16.234;2023-02-20T08:10:57;99538.13;;;10.64;83.43
51099;BME280;37146;48.210;16.234;2023-02-20T08:13:22;99526.00;;;11.93;78.55
51099;BME280;37146;48.210;16.234;2023-02-20T08:15:47;99538.81;;;12.24;77.20
51099;BME280;37146;48.210;16.234;2023-02-20T08:18:13;99538.56;;;12.99;73.11
51099;BME280;37146;48.210;16.234;2023-02-20T08:20:38;99533.66;;;13.23;71.60
51099;BME280;37146;48.210;16.234;2023-02-20T08:23:04;99544.25;;;13.26;67.87
51099;BME280;37146;48.210;16.234;2023-02-20T08:25:30;99539.81;;;13.59;67.53
51099;BME280;37146;48.210;16.234;2023-02-20T08:27:56;99539.75;;;13.27;69.27
51099;BME280;37146;48.210;16.234;2023-02-20T08:30:23;99541.22;;;13.66;66.22
51099;BME280;37146;48.210;16.234;2023-02-20T08:32:49;99519.34;;;13.72;67.64
51099;BME280;37146;48.210;16.234;2023-02-20T08:35:14;99530.38;;;14.61;63.51
51099;BME280;37146;48.210;16.234;2023-02-20T08:37:40;99507.25;;;12.29;72.61
51099;BME280;37146;48.210;16.234;2023-02-20T08:40:05;99486.03;;;11.51;72.64
51099;BME280;37146;48.210;16.234;2023-02-20T08:42:32;99492.91;;;10.38;81.63
51099;BME280;37146;48.210;16.234;2023-02-20T08:44:58;99493.56;;;11.62;74.28
51099;BME280;37146;48.210;16.234;2023-02-20T08:47:23;99488.06;;;11.46;77.37
51099;BME280;37146;48.210;16.234;2023-02-20T08:49:48;99481.38;;;11.55;71.83
51099;BME280;37146;48.210;16.234;2023-02-20T08:52:14;99462.16;;;13.05;68.68
51099;BME280;37146;48.210;16.234;2023-02-20T08:54:42;99465.25;;;13.47;63.00
51099;BME280;37146;48.210;16.234;2023-02-20T08:57:08;99470.13;;;15.36;59.92
51099;BME280;37146;48.210;16.234;2023-02-20T08:59:33;99464.25;;;14.57;57.52
51099;BME280;37146;48.210;16.234;2023-02-20T09:01:59;99454.09;;;15.05;57.23
51099;BME280;37146;48.210;16.234;2023-02-20T09:04:24;99449.59;;;14.77;61.04
51099;BME280;37146;48.210;16.234;2023-02-20T09:06:49;99456.41;;;15.11;58.98
51099;BME280;37146;48.210;16.234;2023-02-20T09:09:14;99441.22;;;14.67;56.11
51099;BME280;37146;48.210;16.234;2023-02-20T09:11:40;99448.78;;;12.53;70.18
51099;BME280;37146;48.210;16.234;2023-02-20T09:14:05;99446.59;;;12.09;69.43
51099;BME280;37146;48.210;16.234;2023-02-20T09:16:30;99464.69;;;11.86;68.28
51099;BME280;37146;48.210;16.234;2023-02-20T09:18:55;99483.53;;;12.90;65.60
51099;BME280;37146;48.210;16.234;2023-02-20T09:21:21;99469.25;;;12.39;67.85
51099;BME280;37146;48.210;16.234;2023-02-20T09:23:46;99464.81;;;14.17;61.78
51099;BME280;37146;48.210;16.234;2023-02-20T09:26:12;99455.44;;;12.80;65.40
51099;BME280;37146;48.210;16.234;2023-02-20T09:28:37;99469.78;;;12.45;67.20
51099;BME280;37146;48.210;16.234;2023-02-20T09:31:04;99461.28;;;11.46;67.61
51099;BME280;37146;48.210;16.234;2023-02-20T09:33:29;99462.13;;;11.27;71.47
51099;BME280;37146;48.210;16.234;2023-02-20T09:35:54;99462.03;;;10.51;72.98
51099;BME280;37146;48.210;16.234;2023-02-20T09:38:20;99471.16;;;10.47;73.02
51099;BME280;37146;48.210;16.234;2023-02-20T09:40:48;99469.53;;;10.43;74.35
51099;BME280;37146;48.210;16.234;2023-02-20T09:46:00;99454.56;;;10.39;76.64
51099;BME280;37146;48.210;16.234;2023-02-20T09:51:16;99449.69;;;10.05;76.69
51099;BME280;37146;48.210;16.234;2023-02-20T09:56:22;99430.56;;;9.94;77.59
51099;BME280;37146;48.210;16.234;2023-02-20T09:59:32;99447.69;;;9.90;77.46
51099;BME280;37146;48.210;16.234;2023-02-20T10:01:38;99447.38;;;9.75;76.30
51099;BME280;37146;48.210;16.234;2023-02-20T10:04:15;99437.81;;;9.70;77.35
51099;BME280;37146;48.210;16.234;2023-02-20T10:06:41;99429.66;;;9.52;78.76
51099;BME280;37146;48.210;16.234;2023-02-20T10:09:12;99440.97;;;9.59;78.19
51099;BME280;37146;48.210;16.234;2023-02-20T10:11:59;99440.31;;;9.74;76.49
51099;BME280;37146;48.210;16.234;2023-02-20T10:14:32;99419.88;;;9.73;75.26
51099;BME280;37146;48.210;16.234;2023-02-20T10:19:49;99411.25;;;11.08;70.97
51099;BME280;37146;48.210;16.234;2023-02-20T10:22:21;99406.25;;;11.39;68.65
51099;BME280;37146;48.210;16.234;2023-02-20T10:29:52;99406.09;;;12.82;61.35
51099;BME280;37146;48.210;16.234;2023-02-20T10:32:20;99398.03;;;11.96;62.38
51099;BME280;37146;48.210;16.234;2023-02-20T10:34:53;99384.03;;;11.73;65.33
51099;BME280;37146;48.210;16.234;2023-02-20T10:37:21;99371.56;;;10.99;64.92
51099;BME280;37146;48.210;16.234;2023-02-20T10:39:51;99370.84;;;11.14;66.02
51099;BME280;37146;48.210;16.234;2023-02-20T10:42:35;99358.38;;;11.13;66.60
51099;BME280;37146;48.210;16.234;2023-02-20T10:45:09;99381.88;;;11.63;66.17
51099;BME280;37146;48.210;16.234;2023-02-20T10:50:08;99382.66;;;10.91;67.27
51099;BME280;37146;48.210;16.234;2023-02-20T10:52:43;99371.56;;;10.99;67.87
51099;BME280;37146;48.210;16.234;2023-02-20T10:55:20;99376.88;;;11.37;66.16
51099;BME280;37146;48.210;16.234;2023-02-20T10:57:51;99367.56;;;12.34;63.58
51099;BME280;37146;48.210;16.234;2023-02-20T11:00:21;99375.91;;;12.45;60.69
51099;BME280;37146;48.210;16.234;2023-02-20T11:02:48;99343.50;;;12.98;60.33
51099;BME280;37146;48.210;16.234;2023-02-20T11:05:18;99362.34;;;13.12;58.44
51099;BME280;37146;48.210;16.234;2023-02-20T11:07:45;99350.22;;;12.24;61.81
51099;BME280;37146;48.210;16.234;2023-02-20T11:10:10;99369.28;;;11.82;63.75
51099;BME280;37146;48.210;16.234;2023-02-20T11:12:43;99349.16;;;11.56;64.23
51099;BME280;37146;48.210;16.234;2023-02-20T11:15:14;99358.53;;;11.47;66.46
51099;BME280;37146;48.210;16.234;2023-02-20T11:17:40;99345.41;;;11.78;64.29
51099;BME280;37146;48.210;16.234;2023-02-20T11:20:36;99340.66;;;11.65;68.07
51099;BME280;37146;48.210;16.234;2023-02-20T11:22:51;99344.06;;;12.71;61.14
51099;BME280;37146;48.210;16.234;2023-02-20T11:25:20;99326.75;;;12.61;60.92
51099;BME280;37146;48.210;16.234;2023-02-20T11:27:46;99325.66;;;12.81;60.71
51099;BME280;37146;48.210;16.234;2023-02-20T11:30:27;99326.94;;;12.24;61.66
51099;BME280;37146;48.210;16.234;2023-02-20T11:35:31;99315.53;;;12.03;64.80
51099;BME280;37146;48.210;16.234;2023-02-20T11:38:16;99317.97;;;12.41;62.30
51099;BME280;37146;48.210;16.234;2023-02-20T11:40:44;99322.38;;;12.26;61.45
51099;BME280;37146;48.210;16.234;2023-02-20T11:43:15;99313.41;;;11.92;62.27
51099;BME280;37146;48.210;16.234;2023-02-20T11:45:43;99301.72;;;11.93;61.53
51099;BME280;37146;48.210;16.234;2023-02-20T11:48:10;99305.53;;;12.06;64.35
51099;BME280;37146;48.210;16.234;2023-02-20T11:53:04;99302.41;;;12.14;62.74
51099;BME280;37146;48.210;16.234;2023-02-20T11:55:31;99292.97;;;12.07;63.97
51099;BME280;37146;48.210;16.234;2023-02-20T11:57:57;99273.44;;;12.55;59.55
51099;BME280;37146;48.210;16.234;2023-02-20T12:00:26;99258.19;;;12.71;58.05
51099;BME280;37146;48.210;16.234;2023-02-20T12:05:20;99268.88;;;12.23;58.44
51099;BME280;37146;48.210;16.234;2023-02-20T12:10:34;99249.69;;;12.15;59.03
51099;BME280;37146;48.210;16.234;2023-02-20T12:13:02;99260.44;;;12.31;58.81
51099;BME280;37146;48.210;16.234;2023-02-20T12:15:28;99260.06;;;12.37;59.19
51099;BME280;37146;48.210;16.234;2023-02-20T12:20:20;99245.97;;;12.17;59.68
51099;BME280;37146;48.210;16.234;2023-02-20T12:22:50;99247.28;;;12.58;58.77
51099;BME280;37146;48.210;16.234;2023-02-20T12:33:31;99230.09;;;11.79;59.39
51099;BME280;37146;48.210;16.234;2023-02-20T12:38:40;99226.53;;;11.79;61.78
51099;BME280;37146;48.210;16.234;2023-02-20T12:46:28;99217.31;;;11.51;61.17
51099;BME280;37146;48.210;16.234;2023-02-20T13:01:51;99177.00;;;11.19;62.56
51099;BME280;37146;48.210;16.234;2023-02-20T13:06:46;99163.97;;;11.46;58.68
51099;BME280;37146;48.210;16.234;2023-02-20T13:09:17;99162.31;;;11.77;59.16
51099;BME280;37146;48.210;16.234;2023-02-20T13:11:44;99164.75;;;11.82;59.68
51099;BME280;37146;48.210;16.234;2023-02-20T13:16:39;99168.53;;;11.78;59.37
51099;BME280;37146;48.210;16.234;2023-02-20T13:19:25;99161.25;;;12.13;57.31
51099;BME280;37146;48.210;16.234;2023-02-20T13:21:51;99171.22;;;12.11;56.94
51099;BME280;37146;48.210;16.234;2023-02-20T13:26:52;99166.16;;;12.69;57.98
51099;BME280;37146;48.210;16.234;2023-02-20T13:31:47;99161.31;;;12.76;56.76
51099;BME280;37146;48.210;16.234;2023-02-20T13:46:59;99152.63;;;11.74;57.24
51099;BME280;37146;48.210;16.234;2023-02-20T13:54:53;99137.16;;;11.64;57.54
51099;BME280;37146;48.210;16.234;2023-02-20T13:57:18;99153.38;;;11.60;57.09
51099;BME280;37146;48.210;16.234;2023-02-20T13:59:45;99150.13;;;11.71;57.94
51099;BME280;37146;48.210;16.234;2023-02-20T14:02:13;99138.72;;;11.68;56.17
51099;BME280;37146;48.210;16.234;2023-02-20T14:05:41;99124.84;;;11.59;55.60
51099;BME280;37146;48.210;16.234;2023-02-20T14:07:37;99125.34;;;11.50;58.98
51099;BME280;37146;48.210;16.234;2023-02-20T14:10:14;99131.81;;;11.80;57.35
51099;BME280;37146;48.210;16.234;2023-02-20T14:12:40;99123.50;;;11.68;57.55
51099;BME280;37146;48.210;16.234;2023-02-20T14:15:05;99125.13;;;11.71;57.11
51099;BME280;37146;48.210;16.234;2023-02-20T14:17:31;99126.03;;;11.87;57.27
51099;BME280;37146;48.210;16.234;2023-02-20T14:19:59;99111.53;;;12.07;56.12
51099;BME280;37146;48.210;16.234;2023-02-20T14:22:30;99113.19;;;12.26;56.23
51099;BME280;37146;48.210;16.234;2023-02-20T14:27:37;99102.84;;;12.50;54.34
51099;BME280;37146;48.210;16.234;2023-02-20T14:30:06;99095.66;;;12.67;54.82
51099;BME280;37146;48.210;16.234;2023-02-20T14:32:32;99106.50;;;12.49;55.64
51099;BME280;37146;48.210;16.234;2023-02-20T14:35:44;99090.84;;;12.26;53.92
51099;BME280;37146;48.210;16.234;2023-02-20T14:40:17;99109.72;;;12.08;57.25
51099;BME280;37146;48.210;16.234;2023-02-20T14:42:43;99106.25;;;12.06;55.05
51099;BME280;37146;48.210;16.234;2023-02-20T14:45:16;99097.25;;;11.91;55.77
51099;BME280;37146;48.210;16.234;2023-02-20T14:47:52;99086.44;;;11.93;56.12
51099;BME280;37146;48.210;16.234;2023-02-20T14:50:20;99086.16;;;11.97;55.28
51099;BME280;37146;48.210;16.234;2023-02-20T14:52:46;99098.09;;;11.75;55.79
51099;BME280;37146;48.210;16.234;2023-02-20T14:55:15;99086.69;;;11.72;55.96